Pagrindinis puslapis
METAR-TAF:

METAR-TAF

Oro uostai :

Saint Catherine, Egiptas

platuma: 28-41-07N, ilguma: 034-03-45E, Aukštis: 1331 m

Dabartinis oras

Ataskaita buvo paskelbta 1 valandą ir 1 minutes, ne 06:00 UTC
Vėjas 8 kt iš Rytų/Pietryčių
Temperatūra 17°C
Drėgmė 59%
Slėgis 1020 hPa
Matomumas 10 km arba daugiau
nėra debesų žemiau 1500 m ir nėra kamuolinių lietaus debesų

METAR: HESC 260600Z 12008KT CAVOK 17/09 Q1020 NOSIG

Laikas: 09:01 (07:01 UTC)

Prognozė

Ataskaita buvo paskelbta 2 valandos ir 1 minutes, ne 05:00 UTC
Prognozė galioja nuo 26 metu 06 UTC su 27 metu 12 UTC
Vėjas 11 kt iš Vakarų
Matomumas 10 km arba daugiau
nėra debesų žemiau 1500 m ir nėra kamuolinių lietaus debesų
Tapsmas
nuo 26 metu 18 UTC su 26 metu 20 UTC
Vėjas 3 kt nuo kintamojo kryptimis
Tapsmas
nuo 27 metu 07 UTC su 27 metu 09 UTC
Vėjas 10 kt iš Šiaurės/Šiaurės Vakarų

TAF: HESC 260500Z 2606/2712 28011KT CAVOK BECMG 2618/2620 VRB03KT BECMG 2707/2709 34010KT

Orai ataskaitas ir orų prognozės (METAR, TAF).

turimą stotys yra geltonos ir raudonos taškus žemėlapyje.

Perkelti pele per norėdami pamatyti stoties vardą.

Tada spustelėkite, norėdami matyti oro stebėjimo ir prognozės.

Norėdami pakeisti žemėlapį: spustelėkite ant žalios mygtukų su juodo kryžiaus žemyn,; žalią mygtuką su brūkšneliu, jei norite nutolinti; arba žalių rodyklių gretimoms žemėlapius.


METAR-TAF: